Time;durP1;ratioP1;P1;durP2;ratioP2;P2;SDS_P1;SDS_P2;PMS_P1;PMS_P2;Temp;Humidity;BMP_temperature;BMP_pressure;BME280_temperature;BME280_humidity;BME280_pressure;Samples;Min_cycle;Max_cycle;Signal;HPM_P1;HPM_P2
2023/09/30 00:00:24;;;;;;;16.25;3.60;;;11.10;99.90;;;;;;5046996;28;20057;-72
2023/09/30 00:02:50;;;;;;;13.07;3.20;;;11.10;99.90;;;;;;5032063;28;20060;-73
2023/09/30 00:05:18;;;;;;;17.45;3.53;;;11.20;99.90;;;;;;5018380;28;20049;-73
2023/09/30 00:07:44;;;;;;;11.00;3.58;;;11.30;99.90;;;;;;5028315;28;20059;-72
2023/09/30 00:10:10;;;;;;;14.48;3.45;;;11.30;99.90;;;;;;5033033;28;20120;-72
2023/09/30 00:12:35;;;;;;;16.73;3.53;;;11.30;99.90;;;;;;5033571;28;20033;-72
2023/09/30 00:15:01;;;;;;;12.95;3.35;;;11.30;99.90;;;;;;5029465;28;20142;-73
2023/09/30 00:17:26;;;;;;;13.63;3.30;;;11.20;99.90;;;;;;5047613;28;20067;-72
2023/09/30 00:19:52;;;;;;;10.60;3.50;;;11.20;99.90;;;;;;5046502;28;20824;-71
2023/09/30 00:22:17;;;;;;;12.57;3.20;;;11.10;99.90;;;;;;5033458;28;20180;-72
2023/09/30 00:24:43;;;;;;;10.07;2.88;;;11.20;99.90;;;;;;5028131;28;20139;-72
2023/09/30 00:27:09;;;;;;;12.45;3.47;;;11.10;99.90;;;;;;5031775;28;20052;-73
2023/09/30 00:29:35;;;;;;;13.75;3.85;;;11.20;99.90;;;;;;5038293;28;20128;-73
2023/09/30 00:32:00;;;;;;;10.80;3.65;;;11.20;99.90;;;;;;5055174;28;20089;-73
2023/09/30 00:34:26;;;;;;;11.52;3.53;;;11.10;99.90;;;;;;5049587;28;20041;-72
2023/09/30 00:36:51;;;;;;;8.48;3.45;;;11.10;99.90;;;;;;5036662;28;20036;-72
2023/09/30 00:39:17;;;;;;;11.52;3.22;;;11.10;99.90;;;;;;5039389;28;20041;-73
2023/09/30 00:41:42;;;;;;;9.25;3.42;;;11.20;99.90;;;;;;5022467;28;20048;-73
2023/09/30 00:44:08;;;;;;;14.18;3.67;;;11.20;99.90;;;;;;5042114;28;20041;-71
2023/09/30 00:46:37;;;;;;;17.95;3.20;;;11.30;99.90;;;;;;5051469;28;20042;-73
2023/09/30 00:49:03;;;;;;;17.17;3.72;;;11.30;99.90;;;;;;5044924;28;20496;-73
2023/09/30 00:51:30;;;;;;;18.27;3.50;;;11.20;99.90;;;;;;5025553;28;20045;-73
2023/09/30 00:53:58;;;;;;;11.93;3.47;;;11.20;99.90;;;;;;5040542;28;20055;-73
2023/09/30 00:56:27;;;;;;;20.73;3.80;;;11.20;99.90;;;;;;5044389;28;20036;-73
2023/09/30 00:58:54;;;;;;;18.20;4.00;;;11.20;99.90;;;;;;5026702;28;20106;-72
2023/09/30 01:01:23;;;;;;;16.33;3.67;;;11.20;99.90;;;;;;5038466;28;20219;-73
2023/09/30 01:03:49;;;;;;;9.27;3.45;;;11.30;99.90;;;;;;5026799;28;20060;-73
2023/09/30 01:06:14;;;;;;;8.73;3.70;;;11.30;99.90;;;;;;5041938;28;20060;-72
2023/09/30 01:08:41;;;;;;;14.73;4.38;;;11.20;99.90;;;;;;5033872;28;20140;-72
2023/09/30 01:11:07;;;;;;;13.05;3.63;;;11.30;99.90;;;;;;5035234;28;20393;-73
2023/09/30 01:13:37;;;;;;;11.43;3.60;;;11.30;99.90;;;;;;5037463;28;20056;-73
2023/09/30 01:16:09;;;;;;;13.98;4.05;;;11.30;99.90;;;;;;5046326;28;20041;-73
2023/09/30 01:18:36;;;;;;;14.48;4.03;;;11.30;99.90;;;;;;5027922;28;20041;-72
2023/09/30 01:21:04;;;;;;;12.65;3.50;;;11.30;99.90;;;;;;5034283;28;20045;-73
2023/09/30 01:23:33;;;;;;;16.55;3.97;;;11.20;99.90;;;;;;5033613;28;20756;-72
2023/09/30 01:26:09;;;;;;;12.43;4.33;;;11.20;99.90;;;;;;5043065;28;20087;-72
2023/09/30 01:28:36;;;;;;;11.73;3.97;;;11.20;99.90;;;;;;5039939;28;20037;-73
2023/09/30 01:31:01;;;;;;;11.90;4.35;;;11.20;99.90;;;;;;5036409;28;20120;-71
2023/09/30 01:33:28;;;;;;;15.32;5.60;;;11.20;99.90;;;;;;5037390;28;20465;-71
2023/09/30 01:35:54;;;;;;;15.82;4.38;;;11.20;99.90;;;;;;5038684;28;20056;-73
2023/09/30 01:38:20;;;;;;;14.88;4.10;;;11.20;99.90;;;;;;5046454;28;20132;-73
2023/09/30 01:40:46;;;;;;;16.83;4.35;;;11.20;99.90;;;;;;5041115;28;20087;-72
2023/09/30 01:43:16;;;;;;;12.55;3.90;;;11.20;99.90;;;;;;5039848;28;20045;-73
2023/09/30 01:45:42;;;;;;;13.05;3.60;;;11.20;99.90;;;;;;5045732;28;20354;-72
2023/09/30 01:48:10;;;;;;;12.20;3.75;;;11.10;99.90;;;;;;5045157;28;20056;-72
2023/09/30 01:50:37;;;;;;;12.02;4.35;;;11.10;99.90;;;;;;5046988;28;20507;-73
2023/09/30 01:53:06;;;;;;;17.42;4.65;;;11.10;99.90;;;;;;5029795;28;20037;-73
2023/09/30 01:55:32;;;;;;;17.73;4.60;;;11.10;99.90;;;;;;5033695;28;20037;-73
2023/09/30 01:57:58;;;;;;;14.60;4.35;;;11.10;99.90;;;;;;5040273;28;20048;-72
2023/09/30 02:00:23;;;;;;;16.45;3.95;;;11.10;99.90;;;;;;5041557;28;20492;-72
2023/09/30 02:02:49;;;;;;;14.70;4.00;;;11.10;99.90;;;;;;5044830;28;20049;-73
2023/09/30 02:05:14;;;;;;;13.48;3.92;;;11.10;99.90;;;;;;5045968;28;20109;-73
2023/09/30 02:07:40;;;;;;;11.88;4.60;;;11.10;99.90;;;;;;5034184;28;20033;-73
2023/09/30 02:10:07;;;;;;;15.70;4.45;;;11.10;99.90;;;;;;5029910;28;20445;-72
2023/09/30 02:12:33;;;;;;;14.27;4.03;;;11.10;99.90;;;;;;5038644;28;20044;-72
2023/09/30 02:14:58;;;;;;;15.57;4.80;;;11.00;99.90;;;;;;5042504;28;20040;-73
2023/09/30 02:17:24;;;;;;;19.77;4.65;;;11.00;99.90;;;;;;5024757;28;20048;-73
2023/09/30 02:19:49;;;;;;;17.88;4.78;;;11.10;99.90;;;;;;5028664;28;20041;-71
2023/09/30 02:22:15;;;;;;;16.67;4.28;;;11.10;99.90;;;;;;5042114;28;20044;-71
2023/09/30 02:24:41;;;;;;;14.27;4.68;;;11.10;99.90;;;;;;5039920;28;20053;-72
2023/09/30 02:27:06;;;;;;;10.07;4.35;;;11.10;99.90;;;;;;5028115;28;20045;-72
2023/09/30 02:29:32;;;;;;;15.57;5.75;;;11.10;99.90;;;;;;5037771;28;20194;-72
2023/09/30 02:31:58;;;;;;;13.63;4.00;;;11.10;99.90;;;;;;5028858;28;20036;-72
2023/09/30 02:34:24;;;;;;;14.52;4.00;;;11.10;99.90;;;;;;5049337;28;20155;-73
2023/09/30 02:36:49;;;;;;;17.02;5.30;;;11.10;99.90;;;;;;5049410;28;20107;-72
2023/09/30 02:39:16;;;;;;;11.40;4.45;;;11.10;99.90;;;;;;5048676;28;20040;-74
2023/09/30 02:41:42;;;;;;;13.98;4.35;;;11.10;99.90;;;;;;5065326;28;20585;-73
2023/09/30 02:44:08;;;;;;;17.63;5.35;;;11.10;99.90;;;;;;5033938;28;20049;-73
2023/09/30 02:46:33;;;;;;;12.35;4.47;;;11.10;99.90;;;;;;5035466;28;20091;-73
2023/09/30 02:49:01;;;;;;;14.30;4.25;;;11.20;99.90;;;;;;5048878;28;20583;-73
2023/09/30 02:51:27;;;;;;;15.18;4.22;;;11.20;99.90;;;;;;5030654;28;20076;-73
2023/09/30 02:53:53;;;;;;;13.45;4.70;;;11.30;99.90;;;;;;5034420;28;20041;-74
2023/09/30 02:56:19;;;;;;;16.08;4.30;;;11.40;99.90;;;;;;5039282;28;20084;-73
2023/09/30 02:58:46;;;;;;;16.67;4.13;;;11.40;99.90;;;;;;5046674;28;20501;-73
2023/09/30 03:01:16;;;;;;;16.38;4.03;;;11.40;99.90;;;;;;5041161;28;20091;-72
2023/09/30 03:03:44;;;;;;;;;;;11.50;99.90;;;;;;5050433;28;20052;-73
2023/09/30 03:06:10;;;;;;;11.32;4.15;;;11.50;99.90;;;;;;5034481;28;19929;-71
2023/09/30 03:08:36;;;;;;;15.00;4.18;;;11.50;99.90;;;;;;5046404;28;20045;-72
2023/09/30 03:11:03;;;;;;;13.60;3.70;;;11.50;99.90;;;;;;5034068;28;20061;-73
2023/09/30 03:13:28;;;;;;;16.88;4.57;;;11.50;99.90;;;;;;5046212;28;20413;-72
2023/09/30 03:15:56;;;;;;;15.27;4.78;;;11.50;99.90;;;;;;5046255;28;20037;-73
2023/09/30 03:18:26;;;;;;;13.15;4.10;;;11.60;99.90;;;;;;5040910;28;20080;-73
2023/09/30 03:20:56;;;;;;;14.48;4.30;;;11.60;99.90;;;;;;5043247;28;20051;-73
2023/09/30 03:23:22;;;;;;;15.68;4.22;;;11.60;99.90;;;;;;5048595;28;20152;-73
2023/09/30 03:25:48;;;;;;;15.65;4.72;;;11.60;99.90;;;;;;5047978;28;20128;-73
2023/09/30 03:28:14;;;;;;;17.50;5.82;;;11.60;99.90;;;;;;5042143;28;20484;-72
2023/09/30 03:30:40;;;;;;;16.75;4.70;;;11.60;99.90;;;;;;5045518;28;20036;-73
2023/09/30 03:33:06;;;;;;;13.88;4.50;;;11.50;99.90;;;;;;5044639;28;20035;-73
2023/09/30 03:35:32;;;;;;;15.43;4.88;;;11.50;99.90;;;;;;5035916;28;20545;-74
2023/09/30 03:37:58;;;;;;;15.90;4.45;;;11.50;99.90;;;;;;5040028;28;20037;-72
2023/09/30 03:40:28;;;;;;;15.13;4.13;;;11.50;99.90;;;;;;5035827;28;20045;-74
2023/09/30 03:42:54;;;;;;;16.48;4.97;;;11.40;99.90;;;;;;5043940;28;20045;-72
2023/09/30 03:45:20;;;;;;;13.43;4.45;;;11.40;99.90;;;;;;5031798;28;20051;-73
2023/09/30 03:47:48;;;;;;;14.45;5.43;;;11.40;99.90;;;;;;5042270;28;20032;-72
2023/09/30 03:50:16;;;;;;;18.48;4.55;;;11.40;99.90;;;;;;5039255;28;20091;-72
2023/09/30 03:52:44;;;;;;;12.85;4.20;;;11.40;99.90;;;;;;5039587;28;20033;-73
2023/09/30 03:55:11;;;;;;;16.98;4.65;;;11.40;99.90;;;;;;5040369;28;20098;-73
2023/09/30 03:57:37;;;;;;;15.98;4.50;;;11.50;99.90;;;;;;5040748;28;20139;-73
2023/09/30 04:00:06;;;;;;;9.55;4.40;;;11.60;99.90;;;;;;5026403;28;20092;-73
2023/09/30 04:02:33;;;;;;;16.95;4.38;;;11.60;99.90;;;;;;5029577;28;20053;-73
2023/09/30 04:04:59;;;;;;;15.55;4.65;;;11.60;99.90;;;;;;5034216;28;20052;-73
2023/09/30 04:07:27;;;;;;;17.23;5.05;;;11.70;99.90;;;;;;5036828;28;20041;-73
2023/09/30 04:09:56;;;;;;;15.05;5.05;;;11.60;99.90;;;;;;5039305;28;20048;-72
2023/09/30 04:12:25;;;;;;;14.07;4.80;;;11.70;99.90;;;;;;5025246;28;20111;-73
2023/09/30 04:14:51;;;;;;;18.30;4.83;;;11.70;99.90;;;;;;5027380;28;20040;-72
2023/09/30 04:17:17;;;;;;;13.13;4.65;;;11.70;99.90;;;;;;5046765;28;20301;-73
2023/09/30 04:19:42;;;;;;;16.70;4.68;;;11.70;99.90;;;;;;5039210;28;20033;-73
2023/09/30 04:22:08;;;;;;;12.73;4.75;;;11.60;99.90;;;;;;5044708;28;20041;-73
2023/09/30 04:24:34;;;;;;;13.88;5.43;;;11.60;99.90;;;;;;5041808;28;20075;-73
2023/09/30 04:27:03;;;;;;;18.55;4.97;;;11.60;99.90;;;;;;5026086;28;20044;-73
2023/09/30 04:29:29;;;;;;;11.48;4.65;;;11.50;99.90;;;;;;5048812;28;20037;-73
2023/09/30 04:31:58;;;;;;;13.48;5.43;;;11.50;99.90;;;;;;5047701;28;20041;-73
2023/09/30 04:34:23;;;;;;;12.43;4.18;;;11.40;99.90;;;;;;5030897;28;20041;-73
2023/09/30 04:36:49;;;;;;;12.23;5.10;;;11.40;99.90;;;;;;5041244;28;20453;-73
2023/09/30 04:39:15;;;;;;;11.73;4.43;;;11.40;99.90;;;;;;5028239;28;20045;-73
2023/09/30 04:41:41;;;;;;;14.23;5.20;;;11.40;99.90;;;;;;5050001;28;20080;-73
2023/09/30 04:44:09;;;;;;;13.95;4.80;;;11.30;99.90;;;;;;5038298;28;20069;-73
2023/09/30 04:46:35;;;;;;;10.68;4.45;;;11.30;99.90;;;;;;5033348;28;20465;-72
2023/09/30 04:49:04;;;;;;;14.52;4.30;;;11.30;99.90;;;;;;5029871;28;20033;-73
2023/09/30 04:51:32;;;;;;;15.38;4.80;;;11.30;99.90;;;;;;5042803;28;20139;-73
2023/09/30 04:53:59;;;;;;;14.75;5.25;;;11.30;99.90;;;;;;5044236;28;20064;-73
2023/09/30 04:56:25;;;;;;;20.05;5.22;;;11.30;99.90;;;;;;5036229;28;20045;-72
2023/09/30 04:58:51;;;;;;;13.52;4.53;;;11.30;99.90;;;;;;5041269;28;20124;-73
2023/09/30 05:01:18;;;;;;;17.95;5.05;;;11.30;99.90;;;;;;5033623;28;20041;-72
2023/09/30 05:03:44;;;;;;;13.98;5.05;;;11.20;99.90;;;;;;5027347;28;20060;-72
2023/09/30 05:06:10;;;;;;;15.90;5.32;;;11.30;99.90;;;;;;5017613;28;20078;-73
2023/09/30 05:08:35;;;;;;;13.32;4.75;;;11.20;99.90;;;;;;5040243;28;20036;-72
2023/09/30 05:11:01;;;;;;;18.23;5.50;;;11.20;99.90;;;;;;5038702;28;20029;-73
2023/09/30 05:13:26;;;;;;;17.17;5.43;;;11.20;99.90;;;;;;5019792;28;20091;-73
2023/09/30 05:15:53;;;;;;;10.43;4.00;;;11.10;99.90;;;;;;5015129;28;20549;-73
2023/09/30 05:18:18;;;;;;;14.85;5.07;;;11.10;99.90;;;;;;5038356;28;20041;-73
2023/09/30 05:20:44;;;;;;;19.05;5.20;;;11.10;99.90;;;;;;5035539;28;20508;-72
2023/09/30 05:23:12;;;;;;;15.93;4.88;;;11.10;99.90;;;;;;5026381;28;20045;-72
2023/09/30 05:25:39;;;;;;;14.00;6.03;;;11.10;99.90;;;;;;5039975;28;20045;-73
2023/09/30 05:28:06;;;;;;;13.73;5.30;;;11.10;99.90;;;;;;5045957;28;20072;-73
2023/09/30 05:30:33;;;;;;;13.93;5.20;;;11.10;99.90;;;;;;5047710;28;20047;-73
2023/09/30 05:32:59;;;;;;;9.93;4.90;;;11.10;99.90;;;;;;5045819;28;20049;-73
2023/09/30 05:35:24;;;;;;;17.08;5.38;;;11.10;99.90;;;;;;5040352;28;20559;-72
2023/09/30 05:37:52;;;;;;;10.00;4.65;;;11.10;99.90;;;;;;5027316;28;20116;-73
2023/09/30 05:40:23;;;;;;;16.95;5.78;;;11.10;99.90;;;;;;5027627;28;20478;-73
2023/09/30 05:42:49;;;;;;;16.90;5.63;;;11.20;99.90;;;;;;5045767;28;20069;-72
2023/09/30 05:45:15;;;;;;;19.17;5.95;;;11.20;99.90;;;;;;5039324;28;20085;-73
2023/09/30 05:47:41;;;;;;;15.23;5.63;;;11.20;99.90;;;;;;5047846;28;20079;-73
2023/09/30 05:50:16;;;;;;;16.58;5.25;;;11.20;99.90;;;;;;5045234;28;20769;-73
2023/09/30 05:52:42;;;;;;;14.75;5.50;;;11.20;99.90;;;;;;5022835;28;20123;-73
2023/09/30 05:55:08;;;;;;;17.67;5.60;;;11.20;99.90;;;;;;5046157;28;20083;-73
2023/09/30 05:57:35;;;;;;;13.48;5.53;;;11.20;99.90;;;;;;5042325;28;20037;-72
2023/09/30 06:00:01;;;;;;;11.00;5.70;;;11.20;99.90;;;;;;5039481;28;20377;-73
2023/09/30 06:02:26;;;;;;;15.63;6.22;;;11.20;99.90;;;;;;5046824;28;20186;-72
2023/09/30 06:04:53;;;;;;;14.40;5.60;;;11.10;99.90;;;;;;5039523;28;20106;-73
2023/09/30 06:07:20;;;;;;;12.93;5.80;;;11.20;99.90;;;;;;5043224;28;20084;-72
2023/09/30 06:09:48;;;;;;;14.60;5.40;;;11.10;99.90;;;;;;5039614;28;20057;-72
2023/09/30 06:12:13;;;;;;;17.92;5.88;;;11.20;99.90;;;;;;5027912;28;20115;-73
2023/09/30 06:14:40;;;;;;;11.77;5.30;;;11.10;99.90;;;;;;5044992;28;20113;-73
2023/09/30 06:17:07;;;;;;;12.45;5.55;;;11.10;99.90;;;;;;5028447;28;20040;-73
2023/09/30 06:19:32;;;;;;;14.43;5.75;;;11.20;99.90;;;;;;5040590;28;20049;-72
2023/09/30 06:21:59;;;;;;;14.48;6.32;;;11.10;99.90;;;;;;5037470;28;20564;-73
2023/09/30 06:24:24;;;;;;;15.75;5.55;;;11.20;99.90;;;;;;5029326;28;20161;-72
2023/09/30 06:26:50;;;;;;;18.25;6.15;;;11.20;99.90;;;;;;5025818;28;20054;-73
2023/09/30 06:29:15;;;;;;;15.75;6.15;;;11.10;99.90;;;;;;5025501;28;20080;-73
2023/09/30 06:31:41;;;;;;;13.52;6.07;;;11.20;99.90;;;;;;5023629;28;20045;-72
2023/09/30 06:34:06;;;;;;;13.05;5.68;;;11.20;99.90;;;;;;5042482;28;20047;-73
2023/09/30 06:36:32;;;;;;;12.40;5.80;;;11.20;99.90;;;;;;5045382;28;20041;-73
2023/09/30 06:38:58;;;;;;;15.98;6.75;;;11.20;99.90;;;;;;5046769;28;20413;-73
2023/09/30 06:41:25;;;;;;;14.07;6.25;;;11.30;99.90;;;;;;5047254;28;20350;-72
2023/09/30 06:43:51;;;;;;;16.35;6.22;;;11.50;99.90;;;;;;5044597;28;20532;-73
2023/09/30 06:46:17;;;;;;;16.70;6.25;;;11.70;99.90;;;;;;5040501;28;20045;-74
2023/09/30 06:48:43;;;;;;;15.43;6.40;;;11.90;99.90;;;;;;5045042;28;20127;-73
2023/09/30 06:51:15;;;;;;;16.35;6.22;;;12.00;99.90;;;;;;5045368;28;20422;-74
2023/09/30 06:53:40;;;;;;;14.82;5.85;;;12.20;99.90;;;;;;5044104;28;20061;-74
2023/09/30 06:56:06;;;;;;;12.30;5.78;;;12.30;99.90;;;;;;5042946;28;20517;-73
2023/09/30 06:58:32;;;;;;;17.30;5.95;;;12.50;99.90;;;;;;5043194;28;20092;-74
2023/09/30 07:00:57;;;;;;;14.02;6.00;;;12.70;99.90;;;;;;5043447;28;20037;-73
2023/09/30 07:03:23;;;;;;;18.42;6.43;;;12.80;99.90;;;;;;5039065;28;20060;-74
2023/09/30 07:05:52;;;;;;;15.32;6.60;;;13.00;99.90;;;;;;5041727;28;20056;-74
2023/09/30 07:08:17;;;;;;;18.90;6.22;;;13.10;99.90;;;;;;5041311;28;20063;-75
2023/09/30 07:10:46;;;;;;;13.38;5.95;;;13.10;99.90;;;;;;5046677;28;20493;-74
2023/09/30 07:13:12;;;;;;;14.38;5.88;;;13.20;99.90;;;;;;5047599;28;20041;-74
2023/09/30 07:15:37;;;;;;;14.05;5.60;;;13.30;99.90;;;;;;5037949;28;20077;-74
2023/09/30 07:18:03;;;;;;;12.88;5.32;;;13.30;99.90;;;;;;5025584;28;20060;-74
2023/09/30 07:20:32;;;;;;;12.20;6.28;;;13.50;99.90;;;;;;5038011;28;20061;-74
2023/09/30 07:22:59;;;;;;;14.82;5.97;;;13.50;99.90;;;;;;5047348;28;20079;-74
2023/09/30 07:25:24;;;;;;;10.25;4.90;;;13.60;99.90;;;;;;5041520;28;20052;-74
2023/09/30 07:27:50;;;;;;;12.90;5.63;;;13.60;99.90;;;;;;5041270;28;20029;-74
2023/09/30 07:30:16;;;;;;;14.10;5.15;;;13.70;99.90;;;;;;5031067;28;20037;-74
2023/09/30 07:32:42;;;;;;;12.43;5.57;;;13.90;99.90;;;;;;5044207;28;20041;-74
2023/09/30 07:35:08;;;;;;;15.63;4.97;;;13.90;99.90;;;;;;5041267;28;20041;-74
2023/09/30 07:37:34;;;;;;;13.50;5.43;;;14.10;99.90;;;;;;5044318;28;20040;-74
2023/09/30 07:40:00;;;;;;;15.00;5.10;;;14.20;99.90;;;;;;5045351;28;20324;-74
2023/09/30 07:42:25;;;;;;;13.13;4.70;;;14.20;99.90;;;;;;5034081;28;20206;-74
2023/09/30 07:44:51;;;;;;;9.02;4.60;;;14.30;99.90;;;;;;5048667;28;20073;-74
2023/09/30 07:47:17;;;;;;;13.88;5.15;;;14.30;99.90;;;;;;5032574;28;20052;-74
2023/09/30 07:49:42;;;;;;;11.82;4.47;;;14.50;99.90;;;;;;5041460;28;20075;-73
2023/09/30 07:52:08;;;;;;;9.05;5.07;;;14.60;99.90;;;;;;5047797;28;20037;-73
2023/09/30 07:54:34;;;;;;;11.13;4.35;;;14.60;99.90;;;;;;5038809;28;20036;-74
2023/09/30 07:57:00;;;;;;;11.55;5.00;;;14.80;99.90;;;;;;5025998;28;20473;-73
2023/09/30 07:59:26;;;;;;;11.30;4.38;;;14.80;99.90;;;;;;5046103;28;20154;-73
2023/09/30 08:01:52;;;;;;;11.85;4.50;;;14.90;99.90;;;;;;5031900;28;20486;-73
2023/09/30 08:04:18;;;;;;;12.93;4.25;;;14.80;99.90;;;;;;5046482;28;20057;-73
2023/09/30 08:06:44;;;;;;;13.55;4.10;;;15.00;99.90;;;;;;5028099;28;20140;-73
2023/09/30 08:09:12;;;;;;;7.65;3.72;;;15.10;99.90;;;;;;5045037;28;20124;-74
2023/09/30 08:11:38;;;;;;;10.68;4.10;;;15.10;99.90;;;;;;5033292;28;20041;-74
2023/09/30 08:14:06;;;;;;;9.30;3.95;;;15.20;99.90;;;;;;5049257;28;20060;-72
2023/09/30 08:16:38;;;;;;;11.20;4.13;;;15.20;99.90;;;;;;5045388;28;20044;-72
2023/09/30 08:19:04;;;;;;;10.38;3.75;;;15.30;99.90;;;;;;5045873;28;20365;-71
2023/09/30 08:21:30;;;;;;;7.97;4.00;;;15.30;99.90;;;;;;5047331;28;20064;-71
2023/09/30 08:23:59;;;;;;;9.80;3.70;;;15.40;99.90;;;;;;5043036;28;20067;-72
2023/09/30 08:26:25;;;;;;;11.77;3.92;;;15.60;99.90;;;;;;5025480;28;20411;-72
2023/09/30 08:28:51;;;;;;;9.18;3.60;;;15.60;99.90;;;;;;5047952;28;20082;-72
2023/09/30 08:31:16;;;;;;;13.93;4.10;;;15.60;99.90;;;;;;5045666;28;20039;-72
2023/09/30 08:33:43;;;;;;;8.82;4.22;;;15.80;99.90;;;;;;5046445;28;20037;-71
2023/09/30 08:36:11;;;;;;;9.07;3.35;;;15.90;99.90;;;;;;5022620;28;20037;-72
2023/09/30 08:38:37;;;;;;;11.30;4.05;;;16.10;99.90;;;;;;5041422;28;20344;-72
2023/09/30 08:41:03;;;;;;;10.52;3.85;;;16.20;99.90;;;;;;5042879;28;20541;-71
2023/09/30 08:43:31;;;;;;;8.50;4.00;;;16.30;99.90;;;;;;5044765;28;20389;-72
2023/09/30 08:45:59;;;;;;;10.02;3.63;;;16.40;99.90;;;;;;5038814;28;20400;-72
2023/09/30 08:48:27;;;;;;;7.90;3.40;;;16.50;99.90;;;;;;5048909;28;20041;-72
2023/09/30 08:50:54;;;;;;;7.20;3.00;;;16.50;99.90;;;;;;5047233;28;20053;-71
2023/09/30 08:53:20;;;;;;;14.25;3.53;;;16.60;99.90;;;;;;5023865;28;20465;-71
2023/09/30 08:55:46;;;;;;;10.30;3.70;;;16.70;99.90;;;;;;5032746;28;20087;-71
2023/09/30 08:58:12;;;;;;;13.15;3.35;;;16.70;99.90;;;;;;5049129;28;20048;-72
2023/09/30 09:00:39;;;;;;;11.13;3.42;;;16.90;99.90;;;;;;5047929;28;20087;-72
2023/09/30 09:03:06;;;;;;;10.68;3.58;;;17.00;99.90;;;;;;5043559;28;20057;-72
2023/09/30 09:05:32;;;;;;;12.45;3.28;;;17.10;99.90;;;;;;5044516;28;20060;-71
2023/09/30 09:07:57;;;;;;;7.35;3.30;;;17.10;99.90;;;;;;5047291;28;20095;-72
2023/09/30 09:10:23;;;;;;;8.07;2.90;;;17.20;99.90;;;;;;5044211;28;20033;-71
2023/09/30 09:12:57;;;;;;;8.43;2.83;;;17.20;99.90;;;;;;5048550;28;20056;-71
2023/09/30 09:15:28;;;;;;;7.30;2.83;;;17.30;99.90;;;;;;5046909;28;20044;-72
2023/09/30 09:17:54;;;;;;;8.73;2.90;;;17.30;99.90;;;;;;5031187;28;20029;-71
2023/09/30 09:20:22;;;;;;;6.70;2.65;;;17.30;99.90;;;;;;5043559;28;20097;-72
2023/09/30 09:22:55;;;;;;;8.60;2.80;;;17.40;99.90;;;;;;5046384;28;20037;-72
2023/09/30 09:25:22;;;;;;;8.07;3.15;;;17.50;99.90;;;;;;5045445;28;20080;-72
2023/09/30 09:27:49;;;;;;;7.95;2.42;;;17.60;99.90;;;;;;5049854;28;20041;-71
2023/09/30 09:30:24;;;;;;;5.75;2.30;;;17.70;99.90;;;;;;5048849;28;20052;-72
2023/09/30 09:33:07;;;;;;;6.97;2.33;;;17.80;99.90;;;;;;5047485;28;20373;-71
2023/09/30 09:35:34;;;;;;;10.07;3.15;;;17.80;99.90;;;;;;5045682;28;20507;-71
2023/09/30 09:38:02;;;;;;;6.70;2.35;;;17.90;99.90;;;;;;5029376;28;20037;-72
2023/09/30 09:40:33;;;;;;;8.82;2.15;;;17.90;99.90;;;;;;5026784;28;20044;-72
2023/09/30 09:42:59;;;;;;;;;;;18.00;99.90;;;;;;5049706;28;20362;-72
2023/09/30 09:45:27;;;;;;;8.30;2.00;;;18.00;99.90;;;;;;5041226;28;19933;-72
2023/09/30 09:47:56;;;;;;;5.38;1.85;;;17.90;99.90;;;;;;5046172;28;20068;-71
2023/09/30 09:50:23;;;;;;;7.43;1.92;;;18.00;99.90;;;;;;5041773;28;20442;-72
2023/09/30 09:52:50;;;;;;;8.63;2.17;;;18.00;99.90;;;;;;5046975;28;20568;-71
2023/09/30 09:55:21;;;;;;;6.53;1.90;;;18.10;99.90;;;;;;5040887;28;20032;-72
2023/09/30 09:57:48;;;;;;;7.95;2.05;;;18.20;99.90;;;;;;5042064;28;20419;-71
2023/09/30 10:00:20;;;;;;;5.82;2.08;;;18.30;99.90;;;;;;5044834;28;20057;-71
2023/09/30 10:02:47;;;;;;;7.97;2.30;;;18.20;99.90;;;;;;5049316;28;20143;-72
2023/09/30 10:05:14;;;;;;;5.78;1.70;;;18.20;99.90;;;;;;5047210;28;20045;-72
2023/09/30 10:08:01;;;;;;;9.00;2.10;;;18.30;99.90;;;;;;5040973;28;20124;-71
2023/09/30 10:10:28;;;;;;;6.93;1.67;;;18.30;99.90;;;;;;5043052;28;20033;-72
2023/09/30 10:12:53;;;;;;;4.13;1.65;;;18.30;99.90;;;;;;5045452;28;20090;-71
2023/09/30 10:15:25;;;;;;;4.63;1.48;;;18.30;99.90;;;;;;5047697;28;20055;-71
2023/09/30 10:18:08;;;;;;;7.95;2.72;;;18.20;99.90;;;;;;5047165;28;20049;-71
2023/09/30 10:20:41;;;;;;;3.47;1.60;;;18.30;99.90;;;;;;5043013;28;20056;-71
2023/09/30 10:23:21;;;;;;;5.25;1.55;;;18.30;99.90;;;;;;5045992;28;20037;-70
2023/09/30 10:25:49;;;;;;;4.88;1.30;;;18.40;99.90;;;;;;5042849;28;20076;-71
2023/09/30 10:28:33;;;;;;;7.43;2.00;;;18.40;99.90;;;;;;5043884;28;20045;-71
2023/09/30 10:31:21;;;;;;;10.18;1.70;;;18.40;99.90;;;;;;5044238;28;20036;-70
2023/09/30 10:34:02;;;;;;;5.78;1.40;;;18.60;99.90;;;;;;5047242;28;20374;-70
2023/09/30 10:36:39;;;;;;;5.13;1.50;;;18.60;99.90;;;;;;5043666;28;20099;-70
2023/09/30 10:39:08;;;;;;;4.68;1.17;;;18.80;99.90;;;;;;5045106;28;20515;-69
2023/09/30 10:41:47;;;;;;;7.78;1.70;;;18.90;99.90;;;;;;5027351;28;20049;-70
2023/09/30 10:44:29;;;;;;;5.38;1.77;;;18.90;99.90;;;;;;5044000;28;20067;-71
2023/09/30 10:47:21;;;;;;;6.60;1.83;;;18.80;99.90;;;;;;5040205;28;20037;-70
2023/09/30 10:49:47;;;;;;;7.07;1.80;;;18.90;99.90;;;;;;5017846;28;20365;-70
2023/09/30 10:52:22;;;;;;;10.02;1.70;;;18.70;99.90;;;;;;5039032;28;20033;-70
2023/09/30 10:54:49;;;;;;;5.63;1.58;;;18.50;99.90;;;;;;5031000;28;20033;-69
2023/09/30 10:57:27;;;;;;;5.38;1.50;;;18.40;99.90;;;;;;5049261;28;20170;-70
2023/09/30 11:00:16;;;;;;;3.33;1.08;;;18.30;99.90;;;;;;5046818;28;20126;-70
2023/09/30 11:02:49;;;;;;;7.13;1.63;;;18.40;99.90;;;;;;5042758;28;20061;-69
2023/09/30 11:05:15;;;;;;;6.97;1.40;;;18.50;99.90;;;;;;5053113;28;20532;-69
2023/09/30 11:07:43;;;;;;;7.30;2.10;;;18.50;99.90;;;;;;5051025;28;20144;-69
2023/09/30 11:10:09;;;;;;;7.22;1.65;;;18.60;99.90;;;;;;5014074;28;20116;-69
2023/09/30 11:12:35;;;;;;;4.18;1.52;;;18.70;99.90;;;;;;5026939;28;20975;-69
2023/09/30 11:15:02;;;;;;;6.85;1.52;;;18.70;99.90;;;;;;5046173;28;20377;-69
2023/09/30 11:17:28;;;;;;;5.05;1.63;;;18.80;99.90;;;;;;5044102;28;20123;-69
2023/09/30 11:19:54;;;;;;;6.55;1.50;;;18.80;99.90;;;;;;5044770;28;20071;-69
2023/09/30 11:22:21;;;;;;;7.13;1.83;;;18.70;99.90;;;;;;5047395;28;20044;-69
2023/09/30 11:24:46;;;;;;;5.30;1.27;;;18.70;99.90;;;;;;5045482;28;20558;-69
2023/09/30 11:27:12;;;;;;;6.28;1.67;;;18.70;99.90;;;;;;5042547;28;20155;-69
2023/09/30 11:29:48;;;;;;;4.15;1.30;;;18.70;99.90;;;;;;5046201;28;20052;-69
2023/09/30 11:32:27;;;;;;;6.97;1.63;;;18.60;99.90;;;;;;5047711;28;20037;-69
2023/09/30 11:34:53;;;;;;;4.05;1.70;;;18.60;99.90;;;;;;5042706;28;20051;-67
2023/09/30 11:37:18;;;;;;;5.65;1.67;;;18.60;99.90;;;;;;5042703;28;20044;-68
2023/09/30 11:39:44;;;;;;;6.72;1.55;;;18.50;99.90;;;;;;5050196;28;20498;-68
2023/09/30 11:42:17;;;;;;;5.28;1.50;;;18.50;99.90;;;;;;5033854;28;20067;-68
2023/09/30 11:44:47;;;;;;;8.05;1.83;;;18.50;99.90;;;;;;5044882;28;20037;-68
2023/09/30 11:47:14;;;;;;;5.33;1.47;;;18.60;99.90;;;;;;5032726;28;20117;-68
2023/09/30 11:49:44;;;;;;;6.35;1.98;;;18.50;99.90;;;;;;5048129;28;20139;-68
2023/09/30 11:52:16;;;;;;;5.47;1.73;;;18.50;99.90;;;;;;5046234;28;20097;-68
2023/09/30 11:54:44;;;;;;;8.30;1.98;;;18.50;99.90;;;;;;5034119;28;20295;-69
2023/09/30 11:57:11;;;;;;;8.30;1.45;;;18.50;99.90;;;;;;5053766;28;20081;-69
2023/09/30 11:59:40;;;;;;;3.75;1.50;;;18.50;99.90;;;;;;5047385;28;20351;-68
2023/09/30 12:02:10;;;;;;;4.00;1.70;;;18.70;99.90;;;;;;5028891;28;20124;-68
2023/09/30 12:04:38;;;;;;;4.28;1.50;;;18.70;99.90;;;;;;5062410;28;20124;-69
2023/09/30 12:07:06;;;;;;;4.88;1.45;;;18.70;99.90;;;;;;5045037;28;20059;-68
2023/09/30 12:09:32;;;;;;;5.03;1.52;;;18.80;99.90;;;;;;5022885;28;20040;-67
2023/09/30 12:11:58;;;;;;;8.20;1.60;;;18.90;99.90;;;;;;5041469;28;20033;-69
2023/09/30 12:14:24;;;;;;;11.38;2.20;;;18.90;99.90;;;;;;5042817;28;22022;-69
2023/09/30 12:16:50;;;;;;;5.05;1.70;;;19.00;99.90;;;;;;5042535;28;20449;-68
2023/09/30 12:19:17;;;;;;;4.60;1.60;;;19.00;99.90;;;;;;5047965;28;20045;-69
2023/09/30 12:21:46;;;;;;;6.78;1.77;;;18.90;99.90;;;;;;5040904;28;20454;-69
2023/09/30 12:24:16;;;;;;;6.35;1.70;;;18.80;99.90;;;;;;5017723;28;20049;-68
2023/09/30 12:26:48;;;;;;;4.28;1.38;;;18.80;99.90;;;;;;5014194;28;20049;-69
2023/09/30 12:29:21;;;;;;;7.22;1.60;;;18.90;99.90;;;;;;5038620;28;20037;-68
2023/09/30 12:31:49;;;;;;;10.30;1.70;;;19.00;99.90;;;;;;5047164;28;20130;-68
2023/09/30 12:34:14;;;;;;;7.28;1.80;;;19.10;99.90;;;;;;5046859;28;20044;-69
2023/09/30 12:36:41;;;;;;;5.65;1.23;;;19.20;99.80;;;;;;5026609;28;20141;-69
2023/09/30 12:39:10;;;;;;;8.20;1.98;;;19.30;99.10;;;;;;5045458;28;20094;-68
2023/09/30 12:41:37;;;;;;;7.10;1.52;;;19.40;99.20;;;;;;5049415;28;20103;-68